Kezdőlap
METAR-TAF:

METAR-TAF

Repülőterek :

Pembrey, Wales

földrajzi szélesség: 51-43N, földrajzi hosszúság: 004-22W, magasság: 3 m

Jelenlegi meteorológiai megfigyelések

A jelentés 19 perccel ezelõtt készült, 14:50 UTC
Nyugati szél 23 kt
Hőmérséklet 11°C
Páratartalom 82%
Légköri nyomás 1004 hPa
Látótávolság: 9000 m

METAR: EGOP 061450Z AUTO 27023KT 9000 // SCT025/// 11/08 Q1004

Idő: 15:09 (15:09 UTC)


TAF: hiányzik

Meteorológiai megfigyelések és előrejelzések több, mint 4000 repülőtéren (METAR és TAF jelentéseket).

A térképen piros és sárga pontok jelzik az elérhető meteorológiai állomásokat.

Mozgassa az egeret a pont fölött, hogy megjelenjen az állomás neve.

Azután kattintson az időjárási megfigyelések és előrejelzések megtekintéséhez.

A térkép megváltoztatása: kattintson a fekete keresztel jelölt zöld gombra ráközelítéshez, a vonallal jelölt zöld gombra távolításhoz, vagy a zöld nyilakra a szomszédos térképek eléréséhez.


METAR-TAF: